This is the latest recevied weather packets stored in our database for station/object OK1SBY-15. If no packets are shown the sender has not sent any weather packets the latest 10 day(s).
| Time | Temp. | Humidity | Pressure | Rain* | Wind** | Luminosity | Snow |
|---|---|---|---|---|---|---|---|
| 1777841213 | 17.22° C | 49% | 997.6 hPa | 0 mm | - | - | - |
| 1777834030 | 18.89° C | 42% | 997.1 hPa | 0 mm | - | - | - |
| 1777830444 | 20° C | 38% | 996.8 hPa | 0 mm | - | - | - |
| 1777826871 | 26.67° C | 30% | 996.8 hPa | 0 mm | - | - | - |
| 1777823285 | 30.56° C | 21% | 997.1 hPa | 0 mm | - | - | - |
| 1777819675 | 31.67° C | 18% | 997.7 hPa | 0 mm | - | - | - |
| 1777816069 | 30.56° C | 24% | 998.7 hPa | 0 mm | - | - | - |
| 1777812464 | 31.67° C | 24% | 999.4 hPa | 0 mm | - | - | - |
| 1777808849 | 32.78° C | 23% | 1000.1 hPa | 0 mm | - | - | - |
| 1777805237 | 32.22° C | 23% | 1000.8 hPa | 0 mm | - | - | - |
| 1777801620 | 27.78° C | 27% | 1001.6 hPa | 0 mm | - | - | - |
| 1777769260 | 9.44° C | 73% | 1002.2 hPa | 0 mm | - | - | - |
| 1777765674 | 10.56° C | 68% | 1002.5 hPa | 0 mm | - | - | - |
| 1777762081 | 11.67° C | 60% | 1002.8 hPa | 0 mm | - | - | - |
| 1777754898 | 13.33° C | 45% | 1003.1 hPa | 0 mm | - | - | - |
| 1777751308 | 12.78° C | 50% | 1003.3 hPa | 0 mm | - | - | - |
| 1777747722 | 14.44° C | 47% | 1003.3 hPa | 0 mm | - | - | - |
| 1777740581 | 24.44° C | 25% | 1003.5 hPa | 0 mm | - | - | - |
| 1777733372 | 29.44° C | 25% | 1004.9 hPa | 0 mm | - | - | - |
| 1777729769 | 28.89° C | 20% | 1005.6 hPa | 0 mm | - | - | - |
| 1777726163 | 28.89° C | 24% | 1006.4 hPa | 0 mm | - | - | - |
| 1777715325 | 25.56° C | 31% | 1008.8 hPa | 0 mm | - | - | - |
| 1777711712 | 18.33° C | 52% | 1009.4 hPa | 0 mm | - | - | - |
| 1777708111 | 15.56° C | 60% | 1009.6 hPa | 0 mm | - | - | - |
| 1777704512 | 14.44° C | 65% | 1009.8 hPa | 0 mm | - | - | - |
* Rain latest hour (hover to see other rain measurements)
** Current wind speed in m/s (hover to see current wind gust speed)